Flight Track Log - Related Links

Times and Time Zones

All times are in EDT time to prevent confusion due to time zone crossing. See the UAL4536 flight status page for this flight to view local times or setup timezone preferences in your user account.

Time Position Orientation Groundspeed Altitude Reporting Facility
EDT Latitude Longitude Course Direction KTS km/h feet Rate Location/Type
Wed 14:16:10 29.9764 -95.2983 90° East 168 311 600  Level Houston Center
Wed 14:16:59 29.9444 -95.2686 141° Southeast 210 389 1.800 1.527 Climbing Houston Center
Wed 14:18:00 29.8858 -95.2250 147° Southeast 260 481 3.400 1.263 Climbing Houston Center
Wed 14:18:15 29.8842 -95.2225 128° Southeast 232 430 3.400 1.481 Level Houston Center
Wed 14:19:00 29.9834 -94.7861 90° East  Level FlightAware Approximate
Wed 14:19:17 29.8183 -95.1472 135° Southeast 265 491 5.300  Level Houston Center
Wed 14:20:00 29.9833 -94.6493 90° East  Level FlightAware Approximate
Wed 14:20:02 29.8114 -95.0800 97° East 282 523 7.000  Level Houston Center
Wed 14:20:19 29.8111 -95.0564 91° East 283 525 7.400 1.839 Climbing Houston Center
Wed 14:21:00 29.9834 -94.5124 90° East  Level FlightAware Approximate
Wed 14:21:04 29.8211 -94.9847 81° East 302 560 8.900  Level Houston Center
Wed 14:21:21 29.8264 -94.9639 74° East 297 550 9.400 987 Climbing Houston Center
Wed 14:22:23 29.8511 -94.8692 73° East 306 566 10.200 774 Climbing Houston Center
Wed 14:23:25 29.8814 -94.7583 72° East 350 649 11.000 720 Climbing Houston Center
Wed 14:24:28 29.9108 -94.6428 74° East 371 687 11.700 672 Climbing Houston Center
Wed 14:25:30 29.9417 -94.5203 74° East 391 724 12.400 677 Climbing Houston Center
Wed 14:26:32 29.9742 -94.3864 74° East 404 748 13.100 823 Climbing Houston Center
Wed 14:27:34 30.0056 -94.2339 77° East 409 758 14.100 871 Climbing Houston Center
Wed 14:28:36 30.0219 -94.1014 82° East 416 771 14.900 823 Climbing Houston Center
Wed 14:29:38 30.0386 -93.9689 82° East 419 776 15.800 823 Climbing Houston Center
Wed 14:30:40 30.0550 -93.8353 82° East 422 782 16.600 768 Climbing Houston Center
Wed 14:31:43 30.0708 -93.7006 82° East 425 787 17.400 768 Climbing Houston Center
Wed 14:32:45 30.0903 -93.5381 82° East 433 801 18.200 823 Climbing Houston Center
Wed 14:33:47 30.1053 -93.4006 83° East 440 814 19.100 823 Climbing Houston Center
Wed 14:34:49 30.1214 -93.2650 82° East 434 803 19.900 823 Climbing Houston Center
Wed 14:35:51 30.1383 -93.1264 82° East 438 811 20.800 823 Climbing Houston Center
Wed 14:36:53 30.1639 -92.9900 78° East 439 813 21.600 871 Climbing Houston Center
Wed 14:37:55 30.1956 -92.8267 77° East 436 808 22.600 871 Climbing Houston Center
Wed 14:38:57 30.2219 -92.6886 77° East 439 813 23.400 816 Climbing Houston Center
Wed 14:40:00 30.2489 -92.5489 77° East 444 822 24.300 816 Climbing Houston Center
Wed 14:41:02 30.2756 -92.4117 77° East 442 819 25.100 871 Climbing Houston Center
Wed 14:42:04 30.3044 -92.2594 78° East 444 822 26.100 871 Climbing Houston Center
Wed 14:43:06 30.3308 -92.1211 78° East 444 822 26.900 774 Climbing Houston Center
Wed 14:44:08 30.3572 -91.9819 78° East 444 822 27.700 871 Climbing Houston Center
Wed 14:45:10 30.3889 -91.8139 78° East 446 826 28.700 864 Climbing Houston Center
Wed 14:46:13 30.4133 -91.6844 78° East 446 826 29.500 768 Climbing Houston Center
Wed 14:47:15 30.4400 -91.5436 78° East 447 827 30.300 823 Climbing Houston Center
Wed 14:48:17 30.4658 -91.4003 78° East 454 840 31.200 927 Climbing Houston Center
Wed 14:49:18 30.5144 -91.2342 71° East 455 843 32.200 878 Climbing Houston Center
Wed 14:50:20 30.5772 -91.1050 61° Northeast 458 848 33.000 816 Climbing Houston Center
Wed 14:51:23 30.6378 -90.9747 62° Northeast 459 850 33.900 816 Climbing Houston Center
Wed 14:52:25 30.6994 -90.8467 61° Northeast 456 845 34.700 532 Climbing Houston Center
Wed 14:53:27 30.7614 -90.7156 61° Northeast 459 850 35.000 145 Climbing Houston Center
Wed 14:54:29 30.8256 -90.5806 61° Northeast 471 872 35.000  Level Houston Center
Wed 14:55:31 30.9058 -90.4111 61° Northeast 494 914 35.000  Level Houston Center
Wed 14:56:33 30.9736 -90.2658 61° Northeast 505 935 35.000  Level Houston Center
Wed 14:57:35 31.0425 -90.1211 61° Northeast 508 941 35.000  Level Houston Center
Wed 14:58:37 31.1403 -90.0086 45° Northeast 495 917 35.000  Level Houston Center
Wed 14:59:39 31.2481 -89.9058 39° Northeast 496 919 35.000  Level Houston Center
Wed 15:00:41 31.3572 -89.8022 39° Northeast 502 930 35.000  Level Houston Center
Wed 15:01:43 31.4628 -89.7006 39° Northeast 496 919 35.000  Level Houston Center
Wed 15:02:45 31.5914 -89.5764 39° Northeast 497 921 35.000  Level Houston Center
Wed 15:03:47 31.6872 -89.4836 39° Northeast 501 929 35.000  Level Houston Center
Wed 15:04:49 31.7944 -89.3789 40° Northeast 501 929 35.000  Level Houston Center
Wed 15:05:51 31.9344 -89.2708 33° Northeast 498 922 35.000  Level Houston Center
Wed 15:06:57 32.0506 -89.1783 34° Northeast 497 921 35.000  Level Memphis Center
Wed 15:07:57 32.1558 -89.0617 43° Northeast 502 930 35.000  Level Memphis Center
Wed 15:08:57 32.2589 -88.9447 44° Northeast 502 930 35.000  Level Memphis Center
Wed 15:09:57 32.3617 -88.8225 45° Northeast 507 938 35.000  Level Memphis Center
Wed 15:10:57 32.4392 -88.6786 57° Northeast 507 938 35.000  Level Memphis Center
Wed 15:11:57 32.5183 -88.5119 61° Northeast 518 959 35.000  Level Memphis Center
Wed 15:14:17 32.6794 -88.1650 61° Northeast 521 966 35.000  Level Atlanta Center
Wed 15:15:17 32.7406 -88.0247 63° Northeast 521 966 35.000  Level Atlanta Center
Wed 15:16:17 32.8167 -87.8600 61° Northeast 526 974 35.000  Level Atlanta Center
Wed 15:17:17 32.8881 -87.7097 60° Northeast 526 974 35.000  Level Atlanta Center
Wed 15:18:17 32.9572 -87.5567 62° Northeast 521 966 35.000  Level Atlanta Center
Wed 15:19:17 33.0128 -87.4350 61° Northeast 521 966 35.000  Level Atlanta Center
Wed 15:20:17 33.0839 -87.2692 63° Northeast 515 954 35.000  Level Atlanta Center
Wed 15:21:17 33.1525 -87.1156 62° Northeast 510 945 35.000  Level Atlanta Center
Wed 15:22:17 33.2278 -86.9467 62° Northeast 510 945 35.000  Level Atlanta Center
Wed 15:23:17 33.2631 -86.7717 76° East 513 950 35.000  Level Atlanta Center
Wed 15:24:17 33.2917 -86.6011 79° East 523 969 35.000  Level Atlanta Center
Wed 15:25:17 33.3114 -86.4525 81° East 518 959 35.000  Level Atlanta Center
Wed 15:26:17 33.3464 -86.2644 77° East 518 959 35.000  Level Atlanta Center
Wed 15:27:17 33.3742 -86.1033 78° East 518 959 35.000  Level Atlanta Center
Wed 15:28:17 33.3997 -85.9397 79° East 511 946 35.000  Level Atlanta Center
Wed 15:29:17 33.4250 -85.7761 79° East 497 921 35.000  Level Atlanta Center
Wed 15:30:17 33.4503 -85.6122 79° East 497 921 35.000  Level Atlanta Center
Wed 15:31:17 33.4772 -85.4433 79° East 509 943 35.000  Level Atlanta Center
Wed 15:32:17 33.5019 -85.2819 80° East 509 943 35.000  Level Atlanta Center
Wed 15:33:17 33.5286 -85.1153 79° East 501 929 35.000  Level Atlanta Center
Wed 15:34:17 33.5486 -84.9711 81° East 501 929 35.000  Level Atlanta Center
Wed 15:35:17 33.5728 -84.8092 80° East 496 919 35.000  Level Atlanta Center
Wed 15:36:17 33.5986 -84.6472 79° East 496 919 35.000  Level Atlanta Center
Wed 15:37:17 33.6392 -84.4681 75° East 496 919 35.000  Level Atlanta Center
Wed 15:38:17 33.6792 -84.3133 73° East 488 904 35.000  Level Atlanta Center
Wed 15:39:17 33.7211 -84.1661 71° East 500 925 35.000  Level Atlanta Center
Wed 15:40:17 33.7650 -84.0089 71° East 500 925 35.000  Level Atlanta Center
Wed 15:41:17 33.8067 -83.8514 72° East 495 917 35.000  Level Atlanta Center
Wed 15:42:17 33.8500 -83.6986 71° East 485 898 35.000 -600 Level Atlanta Center
Wed 15:43:17 33.8914 -83.5408 72° East 485 898 33.800 -1.350 Descending Atlanta Center
Wed 15:44:17 33.9344 -83.3828 72° East 485 898 32.300 -1.450 Descending Atlanta Center
Wed 15:45:17 33.9753 -83.2297 72° East 485 898 30.900 -1.150 Descending Atlanta Center
Wed 15:46:17 34.0158 -83.0689 73° East 485 898 30.000 -850 Descending Atlanta Center
Wed 15:47:17 34.0603 -82.8978 73° East 494 914 29.200 -1.150 Descending Atlanta Center
Wed 15:48:17 34.1003 -82.7369 73° East 494 914 27.700 -1.550 Descending Atlanta Center
Wed 15:49:17 34.1444 -82.5781 71° East 494 914 26.100 -1.550 Descending Atlanta Center
Wed 15:50:17 34.1844 -82.4217 73° East 494 914 24.600 -1.050 Descending Atlanta Center
Wed 15:51:17 34.2239 -82.2625 73° East 489 906 24.000 -1.650 Descending Atlanta Center
Wed 15:52:17 34.2822 -82.1181 64° Northeast 482 893 21.300 -2.850 Descending Atlanta Center
Wed 15:53:17 34.3703 -82.0053 47° Northeast 463 858 18.300 -2.350 Descending Atlanta Center
Wed 15:54:17 34.4581 -81.8925 47° Northeast 456 845 16.600 -1.600 Descending Atlanta Center
Wed 15:55:17 34.5417 -81.7869 46° Northeast 450 834 15.100 -1.500 Descending Atlanta Center
Wed 15:55:37 34.5722 -81.7533 42° Northeast 438 811 14.600 -1.600 Descending Atlanta Center
Wed 15:56:17 34.6231 -81.6811 49° Northeast 431 798 13.500 -1.714 Descending Atlanta Center
Wed 15:57:08 34.6944 -81.5958 44° Northeast 421 779 12.000 -849 Descending Atlanta Center
Wed 15:58:03 34.7697 -81.4975 47° Northeast 421 779 12.000 -52 Level Atlanta Center
Wed 15:59:04 34.8511 -81.3939 46° Northeast 424 785 11.900 -744 Descending Atlanta Center
Wed 16:00:04 34.9300 -81.2900 47° Northeast 421 779 10.500 -857 Descending Atlanta Center
Wed 16:01:17 35.0194 -81.1781 46° Northeast 408 756 10.000 -406 Descending Atlanta Center
Wed 16:02:17 35.0903 -81.0892 46° Northeast 384 711 9.600 -569 Descending Atlanta Center
Wed 16:03:13 35.1775 -81.0683 11° North 279 517 8.900 -1.050 Descending Atlanta Center
Wed 16:04:17 35.2444 -81.0736 356° North 277 513 7.500 -1.377 Descending Atlanta Center
Wed 16:05:15 35.3133 -81.0811 355° North 225 417 6.100 -1.261 Descending Atlanta Center
Wed 16:06:16 35.3803 -81.0864 356° North 244 452 5.000 -1.041 Descending Atlanta Center
Wed 16:07:16 35.4119 -81.0167 61° Northeast 252 467 4.000 -645 Descending Atlanta Center
Wed 16:08:17 35.3714 -80.9825 146° Southeast 206 381 3.700 -362 Descending Atlanta Center
Wed 16:09:12 35.3253 -80.9764 174° South 167 309 3.300 -885 Descending Atlanta Center
Wed 16:10:19 35.2836 -80.9756 179° South 117 217 1.900 -1.254 Descending Atlanta Center

Login

Don't have an account? Register now (free) for customized features, flight alerts, and more!